Time;durP1;ratioP1;P1;durP2;ratioP2;P2;SDS_P1;SDS_P2;PMS_P1;PMS_P2;Temp;Humidity;BMP_temperature;BMP_pressure;BME280_temperature;BME280_humidity;BME280_pressure;Samples;Min_cycle;Max_cycle;Signal;HPM_P1;HPM_P2
2023/07/23 00:01:24;;;;;;;7.80;4.85;;;;;;;;;;4936056;29;20059;-71
2023/07/23 00:03:50;;;;;;;7.95;5.47;;;;;;;;;;4935930;29;20407;-72
2023/07/23 00:06:17;;;;;;;9.38;4.75;;;;;;;;;;4935865;29;20024;-72
2023/07/23 00:08:43;;;;;;;6.32;5.07;;;;;;;;;;4935570;29;20030;-71
2023/07/23 00:11:09;;;;;;;7.10;4.53;;;;;;;;;;4934635;29;20028;-72
2023/07/23 00:13:35;;;;;;;7.93;5.03;;;;;;;;;;4935508;29;20020;-72
2023/07/23 00:16:01;;;;;;;10.85;4.57;;;;;;;;;;4935551;29;20051;-70
2023/07/23 00:18:27;;;;;;;7.97;4.80;;;;;;;;;;4935319;29;20098;-70
2023/07/23 00:20:53;;;;;;;7.18;4.32;;;;;;;;;;4935435;29;20464;-70
2023/07/23 00:23:19;;;;;;;6.18;4.80;;;;;;;;;;4935334;29;20494;-70
2023/07/23 00:25:45;;;;;;;7.88;4.82;;;;;;;;;;4935443;29;20042;-70
2023/07/23 00:28:11;;;;;;;6.43;4.68;;;;;;;;;;4935074;29;20107;-70
2023/07/23 00:30:37;;;;;;;5.72;4.35;;;;;;;;;;4934291;29;20569;-70
2023/07/23 00:33:03;;;;;;;5.43;4.57;;;;;;;;;;4935139;29;20435;-70
2023/07/23 00:35:29;;;;;;;7.93;5.22;;;;;;;;;;4933763;29;20027;-70
2023/07/23 00:37:54;;;;;;;7.88;4.72;;;;;;;;;;4934823;29;20050;-70
2023/07/23 00:40:20;;;;;;;6.43;4.63;;;;;;;;;;4935114;29;20464;-71
2023/07/23 00:42:46;;;;;;;5.40;4.20;;;;;;;;;;4935060;29;20026;-70
2023/07/23 00:45:12;;;;;;;6.97;5.10;;;;;;;;;;4935048;29;20031;-71
2023/07/23 00:47:39;;;;;;;6.00;4.50;;;;;;;;;;4934746;29;20024;-71
2023/07/23 00:50:05;;;;;;;7.20;5.15;;;;;;;;;;4935378;29;20467;-71
2023/07/23 00:52:31;;;;;;;8.18;4.88;;;;;;;;;;4935111;29;20035;-73
2023/07/23 00:54:57;;;;;;;6.78;4.55;;;;;;;;;;4935006;29;20030;-70
2023/07/23 00:57:24;;;;;;;7.25;5.00;;;;;;;;;;4934686;29;20038;-71
2023/07/23 00:59:50;;;;;;;6.38;4.68;;;;;;;;;;4934912;29;20028;-71
2023/07/23 01:02:16;;;;;;;8.13;5.05;;;;;;;;;;4934842;29;20034;-71
2023/07/23 01:04:42;;;;;;;7.25;4.82;;;;;;;;;;4933337;29;20028;-71
2023/07/23 01:07:08;;;;;;;6.95;4.32;;;;;;;;;;4934741;29;20090;-71
2023/07/23 01:09:35;;;;;;;6.45;4.30;;;;;;;;;;4934764;29;20542;-71
2023/07/23 01:12:02;;;;;;;7.10;4.60;;;;;;;;;;4934419;29;20122;-72
2023/07/23 01:14:28;;;;;;;8.25;4.85;;;;;;;;;;4934580;29;20035;-71
2023/07/23 01:16:55;;;;;;;8.20;4.68;;;;;;;;;;4934180;29;20039;-71
2023/07/23 01:19:26;;;;;;;7.00;4.70;;;;;;;;;;4934631;29;20028;-71
2023/07/23 01:21:54;;;;;;;7.32;4.15;;;;;;;;;;4934488;29;20336;-71
2023/07/23 01:24:20;;;;;;;7.10;4.30;;;;;;;;;;4934539;29;20040;-71
2023/07/23 01:26:46;;;;;;;5.50;3.95;;;;;;;;;;4934216;29;20028;-70
2023/07/23 01:29:12;;;;;;;8.18;4.65;;;;;;;;;;4934564;29;20111;-71
2023/07/23 01:31:38;;;;;;;6.60;4.15;;;;;;;;;;4934237;29;20051;-70
2023/07/23 01:34:05;;;;;;;5.85;4.43;;;;;;;;;;4932858;29;20024;-71
2023/07/23 01:36:31;;;;;;;6.78;4.05;;;;;;;;;;4934153;29;20023;-70
2023/07/23 01:38:57;;;;;;;6.28;4.13;;;;;;;;;;4934285;29;20028;-72
2023/07/23 01:41:24;;;;;;;6.07;4.15;;;;;;;;;;4932876;29;20023;-72
2023/07/23 01:43:50;;;;;;;9.25;3.53;;;;;;;;;;4933990;29;20035;-71
2023/07/23 01:46:16;;;;;;;5.75;4.22;;;;;;;;;;4933826;29;20028;-71
2023/07/23 01:48:42;;;;;;;4.72;3.40;;;;;;;;;;4933959;29;20392;-71
2023/07/23 01:51:10;;;;;;;7.65;4.03;;;;;;;;;;4934209;29;20480;-71
2023/07/23 01:53:36;;;;;;;3.83;3.42;;;;;;;;;;4934020;29;20038;-72
2023/07/23 01:56:02;;;;;;;5.32;3.80;;;;;;;;;;4932716;29;20399;-71
2023/07/23 01:58:28;;;;;;;6.38;4.20;;;;;;;;;;4937833;29;20030;-71
2023/07/23 02:00:59;;;;;;;5.15;3.83;;;;;;;;;;4940312;29;20023;-72
2023/07/23 02:03:25;;;;;;;3.50;3.20;;;;;;;;;;4940224;29;20492;-71
2023/07/23 02:05:57;;;;;;;5.85;3.78;;;;;;;;;;4940262;29;20262;-71
2023/07/23 02:08:23;;;;;;;5.18;3.40;;;;;;;;;;4940155;29;20031;-71
2023/07/23 02:10:49;;;;;;;7.90;3.75;;;;;;;;;;4940186;29;20034;-71
2023/07/23 02:13:15;;;;;;;6.03;3.50;;;;;;;;;;4940008;29;20032;-70
2023/07/23 02:15:41;;;;;;;4.90;3.40;;;;;;;;;;4940174;29;20020;-71
2023/07/23 02:18:07;;;;;;;7.07;3.63;;;;;;;;;;4940107;29;20055;-71
2023/07/23 02:20:33;;;;;;;4.28;3.60;;;;;;;;;;4938816;29;20051;-71
2023/07/23 02:22:59;;;;;;;5.55;3.65;;;;;;;;;;4939974;29;20063;-71
2023/07/23 02:25:25;;;;;;;3.75;2.83;;;;;;;;;;4940144;29;20027;-72
2023/07/23 02:27:51;;;;;;;5.72;3.00;;;;;;;;;;4939872;29;20106;-72
2023/07/23 02:30:18;;;;;;;3.65;2.90;;;;;;;;;;4938691;29;20471;-72
2023/07/23 02:32:44;;;;;;;8.27;3.22;;;;;;;;;;4940578;29;20032;-71
2023/07/23 02:35:10;;;;;;;4.72;3.35;;;;;;;;;;4939945;29;20050;-71
2023/07/23 02:37:36;;;;;;;4.15;2.83;;;;;;;;;;4939835;29;20027;-71
2023/07/23 02:40:02;;;;;;;3.70;3.13;;;;;;;;;;4940077;29;20082;-71
2023/07/23 02:42:28;;;;;;;3.80;3.05;;;;;;;;;;4939731;29;20321;-71
2023/07/23 02:44:54;;;;;;;5.93;2.97;;;;;;;;;;4940129;29;20142;-71
2023/07/23 02:47:20;;;;;;;5.63;3.38;;;;;;;;;;4939772;29;20029;-71
2023/07/23 02:49:46;;;;;;;7.53;4.60;;;;;;;;;;4940042;29;20156;-71
2023/07/23 02:52:12;;;;;;;4.28;3.33;;;;;;;;;;4939948;29;20476;-71
2023/07/23 02:54:38;;;;;;;5.10;3.67;;;;;;;;;;4939889;29;20059;-71
2023/07/23 02:57:04;;;;;;;5.32;3.75;;;;;;;;;;4939698;29;20035;-71
2023/07/23 02:59:30;;;;;;;7.68;3.17;;;;;;;;;;4939857;29;20388;-71
2023/07/23 03:01:56;;;;;;;4.68;3.03;;;;;;;;;;4939765;29;20028;-71
2023/07/23 03:04:26;;;;;;;4.05;3.10;;;;;;;;;;4939650;29;20039;-72
2023/07/23 03:06:52;;;;;;;4.18;3.08;;;;;;;;;;4939634;29;20031;-71
2023/07/23 03:09:18;;;;;;;6.28;3.90;;;;;;;;;;4937428;29;20035;-70
2023/07/23 03:11:44;;;;;;;5.35;3.35;;;;;;;;;;4936520;29;20032;-71
2023/07/23 03:14:10;;;;;;;3.88;3.03;;;;;;;;;;4936596;29;20051;-71
2023/07/23 03:16:36;;;;;;;4.38;2.85;;;;;;;;;;4936526;29;20110;-71
2023/07/23 03:19:02;;;;;;;5.95;3.33;;;;;;;;;;4936849;29;20095;-71
2023/07/23 03:21:28;;;;;;;4.07;3.03;;;;;;;;;;4936502;29;20122;-71
2023/07/23 03:23:54;;;;;;;6.00;3.08;;;;;;;;;;4936410;29;20035;-71
2023/07/23 03:26:20;;;;;;;4.57;3.30;;;;;;;;;;4936412;29;20024;-71
2023/07/23 03:28:46;;;;;;;3.85;2.97;;;;;;;;;;4936264;29;20428;-71
2023/07/23 03:31:12;;;;;;;3.65;2.83;;;;;;;;;;4936512;29;20022;-71
2023/07/23 03:33:38;;;;;;;4.03;2.88;;;;;;;;;;4936153;29;20075;-70
2023/07/23 03:36:04;;;;;;;5.25;2.90;;;;;;;;;;4936376;29;20027;-71
2023/07/23 03:38:30;;;;;;;4.32;3.35;;;;;;;;;;4936188;29;20479;-71
2023/07/23 03:40:56;;;;;;;6.10;3.00;;;;;;;;;;4936182;29;20046;-71
2023/07/23 03:43:22;;;;;;;3.88;2.60;;;;;;;;;;4936201;29;20168;-71
2023/07/23 03:45:48;;;;;;;4.30;3.05;;;;;;;;;;4936081;29;20111;-71
2023/07/23 03:48:14;;;;;;;6.45;3.15;;;;;;;;;;4935899;29;20032;-71
2023/07/23 03:50:40;;;;;;;5.35;3.28;;;;;;;;;;4936183;29;20032;-72
2023/07/23 03:53:06;;;;;;;7.05;5.13;;;;;;;;;;4935802;29;20023;-72
2023/07/23 03:55:33;;;;;;;5.00;3.20;;;;;;;;;;4935933;29;20492;-72
2023/07/23 03:57:59;;;;;;;5.13;3.30;;;;;;;;;;4935909;29;20600;-72
2023/07/23 04:00:25;;;;;;;3.35;2.92;;;;;;;;;;4936063;29;20067;-72
2023/07/23 04:02:51;;;;;;;4.53;3.00;;;;;;;;;;4935715;29;20032;-70
2023/07/23 04:05:17;;;;;;;4.55;3.22;;;;;;;;;;4935813;29;20028;-71
2023/07/23 04:07:43;;;;;;;4.72;3.00;;;;;;;;;;4935538;29;20042;-71
2023/07/23 04:10:09;;;;;;;4.97;2.72;;;;;;;;;;4934415;29;20127;-71
2023/07/23 04:12:35;;;;;;;6.07;3.05;;;;;;;;;;4934009;29;20028;-71
2023/07/23 04:15:04;;;;;;;3.08;2.75;;;;;;;;;;4935587;29;20024;-71
2023/07/23 04:17:31;;;;;;;4.00;2.67;;;;;;;;;;4935371;29;20476;-71
2023/07/23 04:19:57;;;;;;;3.85;2.60;;;;;;;;;;4935519;29;20024;-71
2023/07/23 04:22:23;;;;;;;5.00;2.97;;;;;;;;;;4934895;29;20032;-71
2023/07/23 04:24:49;;;;;;;3.97;2.92;;;;;;;;;;4935266;29;20462;-71
2023/07/23 04:27:15;;;;;;;3.92;2.83;;;;;;;;;;4935123;29;20104;-72
2023/07/23 04:29:41;;;;;;;5.13;2.88;;;;;;;;;;4934037;29;20071;-72
2023/07/23 04:32:07;;;;;;;3.80;2.60;;;;;;;;;;4935054;29;20087;-72
2023/07/23 04:34:33;;;;;;;7.03;2.88;;;;;;;;;;4935147;29;20067;-73
2023/07/23 04:36:59;;;;;;;4.28;2.80;;;;;;;;;;4934979;29;20024;-73
2023/07/23 04:39:25;;;;;;;5.07;2.97;;;;;;;;;;4935330;29;20407;-71
2023/07/23 04:41:51;;;;;;;3.50;2.60;;;;;;;;;;4935027;29;20030;-72
2023/07/23 04:44:17;;;;;;;5.60;3.10;;;;;;;;;;4935159;29;20028;-72
2023/07/23 04:46:43;;;;;;;4.18;3.10;;;;;;;;;;4934778;29;20499;-71
2023/07/23 04:49:09;;;;;;;3.70;3.03;;;;;;;;;;4934966;29;20039;-71
2023/07/23 04:51:35;;;;;;;5.85;3.20;;;;;;;;;;4934753;29;20024;-71
2023/07/23 04:54:02;;;;;;;5.00;3.30;;;;;;;;;;4934911;29;20023;-71
2023/07/23 04:56:28;;;;;;;4.03;2.70;;;;;;;;;;4934829;29;20024;-72
2023/07/23 04:58:54;;;;;;;4.22;2.75;;;;;;;;;;4934826;29;20037;-72
2023/07/23 05:01:20;;;;;;;5.20;2.90;;;;;;;;;;4934850;29;20024;-71
2023/07/23 05:03:45;;;;;;;5.88;3.03;;;;;;;;;;4934555;29;20471;-72
2023/07/23 05:06:11;;;;;;;4.70;2.88;;;;;;;;;;4934534;29;20030;-71
2023/07/23 05:08:38;;;;;;;4.70;2.92;;;;;;;;;;4934488;29;20059;-71
2023/07/23 05:11:04;;;;;;;2.80;2.50;;;;;;;;;;4934543;29;20024;-71
2023/07/23 05:13:31;;;;;;;5.88;2.80;;;;;;;;;;4934366;29;20055;-72
2023/07/23 05:16:02;;;;;;;6.00;2.80;;;;;;;;;;4934593;29;20079;-71
2023/07/23 05:18:28;;;;;;;4.27;3.23;;;;;;;;;;4933064;29;20024;-71
2023/07/23 05:20:54;;;;;;;3.03;2.60;;;;;;;;;;4934301;29;20612;-71
2023/07/23 05:23:20;;;;;;;4.47;2.83;;;;;;;;;;4934705;29;20452;-71
2023/07/23 05:25:46;;;;;;;3.45;2.63;;;;;;;;;;4934438;29;20495;-72
2023/07/23 05:28:12;;;;;;;3.80;2.55;;;;;;;;;;4934384;29;20028;-71
2023/07/23 05:30:38;;;;;;;5.30;2.70;;;;;;;;;;4934780;29;20487;-72
2023/07/23 05:33:04;;;;;;;5.72;2.95;;;;;;;;;;4933484;29;20044;-72
2023/07/23 05:35:30;;;;;;;3.30;2.80;;;;;;;;;;4934247;29;20396;-72
2023/07/23 05:37:56;;;;;;;4.43;3.00;;;;;;;;;;4945130;29;20400;-72
2023/07/23 05:40:22;;;;;;;6.13;2.65;;;;;;;;;;4953399;28;20078;-72
2023/07/23 05:42:49;;;;;;;5.68;2.80;;;;;;;;;;4953211;29;20028;-72
2023/07/23 05:45:14;;;;;;;7.30;2.90;;;;;;;;;;4953396;28;20039;-72
2023/07/23 05:47:40;;;;;;;3.85;2.58;;;;;;;;;;4953217;28;20336;-71
2023/07/23 05:50:07;;;;;;;4.05;2.45;;;;;;;;;;4953370;28;20027;-72
2023/07/23 05:52:33;;;;;;;6.18;3.00;;;;;;;;;;4951858;29;20102;-71
2023/07/23 05:54:59;;;;;;;4.30;2.60;;;;;;;;;;4953115;29;20059;-72
2023/07/23 05:57:25;;;;;;;4.07;3.00;;;;;;;;;;4953109;29;20122;-72
2023/07/23 05:59:51;;;;;;;4.47;2.65;;;;;;;;;;4953226;29;20024;-72
2023/07/23 06:02:17;;;;;;;3.20;2.47;;;;;;;;;;4953166;28;20380;-72
2023/07/23 06:04:43;;;;;;;3.22;2.42;;;;;;;;;;4953182;28;20487;-72
2023/07/23 06:07:09;;;;;;;3.10;2.47;;;;;;;;;;4952907;28;20031;-72
2023/07/23 06:09:35;;;;;;;5.95;2.88;;;;;;;;;;4951954;29;20038;-72
2023/07/23 06:12:01;;;;;;;3.05;2.50;;;;;;;;;;4953156;29;20031;-72
2023/07/23 06:14:27;;;;;;;3.47;2.83;;;;;;;;;;4952843;29;20098;-72
2023/07/23 06:16:53;;;;;;;3.50;2.58;;;;;;;;;;4952933;29;20416;-72
2023/07/23 06:19:19;;;;;;;3.55;2.42;;;;;;;;;;4953089;28;20024;-72
2023/07/23 06:21:45;;;;;;;4.40;2.30;;;;;;;;;;4952635;29;20074;-72
2023/07/23 06:24:11;;;;;;;3.05;2.53;;;;;;;;;;4952933;29;20027;-72
2023/07/23 06:26:37;;;;;;;2.88;2.53;;;;;;;;;;4952582;29;20475;-74
2023/07/23 06:29:05;;;;;;;6.10;2.72;;;;;;;;;;4952932;28;20034;-73
2023/07/23 06:31:31;;;;;;;3.08;2.75;;;;;;;;;;4952852;28;20058;-72
2023/07/23 06:33:57;;;;;;;12.50;3.13;;;;;;;;;;4952910;28;20054;-72
2023/07/23 06:36:23;;;;;;;3.08;2.80;;;;;;;;;;4952593;28;20705;-72
2023/07/23 06:38:49;;;;;;;4.57;2.90;;;;;;;;;;4952506;29;20031;-73
2023/07/23 06:41:15;;;;;;;4.57;2.90;;;;;;;;;;4951729;29;20023;-72
2023/07/23 06:43:41;;;;;;;3.10;2.65;;;;;;;;;;4953367;28;20027;-72
2023/07/23 06:46:07;;;;;;;4.07;2.40;;;;;;;;;;4941034;29;20035;-72
2023/07/23 06:48:33;;;;;;;4.80;2.55;;;;;;;;;;4936408;29;20421;-73
2023/07/23 06:50:59;;;;;;;5.13;2.53;;;;;;;;;;4956234;28;20109;-72
2023/07/23 06:53:25;;;;;;;3.95;2.83;;;;;;;;;;4953600;28;20054;-72
2023/07/23 06:55:58;;;;;;;2.95;2.40;;;;;;;;;;4956286;28;20046;-72
2023/07/23 06:58:24;;;;;;;3.05;2.58;;;;;;;;;;4956020;29;20031;-73
2023/07/23 07:00:50;;;;;;;4.30;2.33;;;;;;;;;;4956631;28;20031;-72
2023/07/23 07:03:16;;;;;;;3.45;2.55;;;;;;;;;;4956013;28;20054;-72
2023/07/23 07:05:42;;;;;;;4.03;3.20;;;;;;;;;;4953228;29;20487;-73
2023/07/23 07:08:08;;;;;;;3.33;2.63;;;;;;;;;;4955800;28;20032;-73
2023/07/23 07:10:34;;;;;;;3.47;2.30;;;;;;;;;;4956055;28;20035;-73
2023/07/23 07:13:00;;;;;;;3.72;2.38;;;;;;;;;;4955830;29;20376;-73
2023/07/23 07:15:26;;;;;;;3.65;2.60;;;;;;;;;;4955789;29;20047;-73
2023/07/23 07:17:52;;;;;;;5.53;2.35;;;;;;;;;;4955797;28;20458;-73
2023/07/23 07:20:18;;;;;;;2.65;2.40;;;;;;;;;;4956618;28;20042;-74
2023/07/23 07:22:44;;;;;;;3.05;2.60;;;;;;;;;;4955385;28;20122;-77
2023/07/23 07:25:10;;;;;;;4.20;2.60;;;;;;;;;;4936451;29;20047;-75
2023/07/23 07:27:36;;;;;;;3.10;2.40;;;;;;;;;;4936665;29;20106;-74
2023/07/23 07:30:03;;;;;;;3.13;2.83;;;;;;;;;;4936703;29;20030;-73
2023/07/23 07:32:29;;;;;;;4.90;2.90;;;;;;;;;;4936250;29;20047;-73
2023/07/23 07:34:55;;;;;;;3.40;2.45;;;;;;;;;;4936435;29;20091;-73
2023/07/23 07:37:21;;;;;;;4.40;2.47;;;;;;;;;;4936141;29;20024;-73
2023/07/23 07:39:47;;;;;;;3.13;2.83;;;;;;;;;;4936375;29;20028;-74
2023/07/23 07:42:13;;;;;;;4.07;2.58;;;;;;;;;;4935112;29;20403;-73
2023/07/23 07:44:39;;;;;;;3.17;2.03;;;;;;;;;;4936387;29;20032;-73
2023/07/23 07:47:05;;;;;;;3.03;2.60;;;;;;;;;;4935907;29;20095;-73
2023/07/23 07:49:31;;;;;;;3.05;2.72;;;;;;;;;;4936209;29;20032;-74
2023/07/23 07:51:58;;;;;;;3.85;2.70;;;;;;;;;;4936004;29;20573;-73
2023/07/23 07:54:24;;;;;;;5.00;3.03;;;;;;;;;;4948711;29;20023;-73
2023/07/23 07:56:50;;;;;;;5.55;2.60;;;;;;;;;;4954612;28;20039;-72
2023/07/23 07:59:16;;;;;;;5.47;2.92;;;;;;;;;;4955046;29;20028;-73
2023/07/23 08:01:42;;;;;;;3.20;2.40;;;;;;;;;;4954858;29;20074;-72
2023/07/23 08:04:10;;;;;;;3.88;2.75;;;;;;;;;;4954936;29;20068;-72
2023/07/23 08:06:37;;;;;;;3.13;2.42;;;;;;;;;;4954764;28;20046;-73
2023/07/23 08:09:04;;;;;;;6.28;2.50;;;;;;;;;;4954861;29;20564;-72
2023/07/23 08:11:30;;;;;;;2.83;2.63;;;;;;;;;;4954576;29;20034;-74
2023/07/23 08:13:57;;;;;;;8.32;5.97;;;;;;;;;;4954658;29;20034;-74
2023/07/23 08:16:23;;;;;;;9.98;6.45;;;;;;;;;;4953592;29;20344;-73
2023/07/23 08:18:49;;;;;;;4.50;2.80;;;;;;;;;;4954509;29;20027;-73
2023/07/23 08:21:15;;;;;;;3.10;2.80;;;;;;;;;;4954628;29;20403;-73
2023/07/23 08:23:41;;;;;;;2.75;2.50;;;;;;;;;;4954281;28;20074;-73
2023/07/23 08:26:08;;;;;;;2.60;2.33;;;;;;;;;;4954555;29;20131;-73
2023/07/23 08:28:39;;;;;;;3.72;2.33;;;;;;;;;;4953100;28;20035;-73
2023/07/23 08:31:05;;;;;;;2.65;2.45;;;;;;;;;;4954113;29;20487;-73
2023/07/23 08:33:32;;;;;;;3.88;2.42;;;;;;;;;;4954230;29;20486;-73
2023/07/23 08:36:00;;;;;;;4.15;2.08;;;;;;;;;;4954346;29;20051;-73
2023/07/23 08:38:26;;;;;;;3.20;2.08;;;;;;;;;;4953991;29;20027;-73
2023/07/23 08:41:03;;;;;;;4.25;2.00;;;;;;;;;;4954235;29;20019;-75
2023/07/23 08:43:48;;;;;;;4.82;2.53;;;;;;;;;;4952859;29;20028;-73
2023/07/23 08:46:17;;;;;;;3.92;2.33;;;;;;;;;;4952792;29;20499;-73
2023/07/23 08:48:49;;;;;;;2.92;1.95;;;;;;;;;;4953880;28;20038;-73
2023/07/23 08:51:15;;;;;;;2.67;2.20;;;;;;;;;;4954002;29;20035;-74
2023/07/23 08:53:42;;;;;;;4.28;2.40;;;;;;;;;;4953542;28;20027;-73
2023/07/23 08:56:08;;;;;;;2.47;1.98;;;;;;;;;;4953970;29;20031;-74
2023/07/23 08:58:34;;;;;;;3.40;2.22;;;;;;;;;;4953888;29;20055;-73
2023/07/23 09:01:00;;;;;;;2.88;2.20;;;;;;;;;;4954014;28;20098;-74
2023/07/23 09:03:27;;;;;;;3.95;2.47;;;;;;;;;;4953620;29;20038;-73
2023/07/23 09:05:53;;;;;;;3.60;2.55;;;;;;;;;;4952524;29;20027;-73
2023/07/23 09:08:20;;;;;;;2.40;2.20;;;;;;;;;;4952832;28;20448;-73
2023/07/23 09:10:46;;;;;;;2.40;2.20;;;;;;;;;;4951236;29;20085;-74
2023/07/23 09:13:14;;;;;;;5.95;2.65;;;;;;;;;;4952186;29;20098;-73
2023/07/23 09:15:40;;;;;;;3.72;2.25;;;;;;;;;;4953512;28;20015;-76
2023/07/23 09:18:07;;;;;;;3.55;2.30;;;;;;;;;;4953458;29;20099;-73
2023/07/23 09:20:33;;;;;;;4.93;2.22;;;;;;;;;;4953581;28;20028;-73
2023/07/23 09:23:05;;;;;;;5.53;1.90;;;;;;;;;;4951944;28;20042;-73
2023/07/23 09:25:32;;;;;;;4.55;2.33;;;;;;;;;;4952016;28;20034;-73
2023/07/23 09:27:58;;;;;;;3.63;2.25;;;;;;;;;;4953221;28;20089;-73
2023/07/23 09:30:25;;;;;;;2.90;1.90;;;;;;;;;;4953508;29;20027;-73
2023/07/23 09:33:07;;;;;;;4.35;2.55;;;;;;;;;;4953170;29;20035;-73
2023/07/23 09:35:33;;;;;;;3.95;1.92;;;;;;;;;;4953411;28;20103;-72
2023/07/23 09:38:00;;;;;;;4.50;1.80;;;;;;;;;;4953166;28;20027;-73
2023/07/23 09:40:39;;;;;;;3.53;2.20;;;;;;;;;;4953296;29;20023;-73
2023/07/23 09:43:05;;;;;;;2.40;2.17;;;;;;;;;;4953186;28;20031;-74
2023/07/23 09:45:32;;;;;;;3.67;2.35;;;;;;;;;;4953270;29;20042;-72
2023/07/23 09:47:58;;;;;;;3.72;2.55;;;;;;;;;;4952982;28;20031;-74
2023/07/23 09:50:25;;;;;;;3.47;1.77;;;;;;;;;;4953093;29;20495;-73
2023/07/23 09:52:51;;;;;;;4.25;1.90;;;;;;;;;;4953081;29;20039;-73
2023/07/23 09:55:18;;;;;;;2.13;1.55;;;;;;;;;;4952921;29;20115;-73
2023/07/23 09:57:45;;;;;;;4.22;1.90;;;;;;;;;;4952802;29;20050;-73
2023/07/23 10:00:12;;;;;;;2.30;1.80;;;;;;;;;;4953147;29;20031;-72
2023/07/23 10:02:40;;;;;;;3.10;2.05;;;;;;;;;;4953492;29;20038;-73
2023/07/23 10:05:07;;;;;;;2.30;2.05;;;;;;;;;;4953259;29;20034;-73
2023/07/23 10:07:33;;;;;;;2.92;1.92;;;;;;;;;;4952513;29;20051;-72
2023/07/23 10:10:00;;;;;;;3.72;2.00;;;;;;;;;;4951551;28;20093;-73
2023/07/23 10:12:26;;;;;;;4.53;2.15;;;;;;;;;;4950295;28;20027;-73
2023/07/23 10:14:52;;;;;;;3.05;2.10;;;;;;;;;;4947410;29;20030;-73
2023/07/23 10:17:18;;;;;;;2.53;2.17;;;;;;;;;;4952685;28;20019;-73
2023/07/23 10:19:45;;;;;;;4.50;2.03;;;;;;;;;;4953890;28;20070;-72
2023/07/23 10:22:12;;;;;;;2.60;2.03;;;;;;;;;;4956604;29;20034;-72
2023/07/23 10:24:39;;;;;;;3.70;1.90;;;;;;;;;;4956811;29;20368;-74
2023/07/23 10:27:12;;;;;;;3.20;2.17;;;;;;;;;;4955306;29;20556;-72
2023/07/23 10:29:38;;;;;;;2.28;1.85;;;;;;;;;;4955415;28;20141;-73
2023/07/23 10:32:23;;;;;;;2.08;1.80;;;;;;;;;;4956525;29;20027;-74
2023/07/23 10:34:49;;;;;;;2.67;1.83;;;;;;;;;;4956327;28;20507;-72
2023/07/23 10:37:18;;;;;;;4.03;2.20;;;;;;;;;;4954930;28;20383;-71
2023/07/23 10:39:48;;;;;;;4.60;2.13;;;;;;;;;;4956716;28;20058;-74
2023/07/23 10:42:29;;;;;;;2.63;1.83;;;;;;;;;;4956484;28;20557;-73
2023/07/23 10:45:13;;;;;;;2.08;1.58;;;;;;;;;;4955284;28;20035;-73
2023/07/23 10:47:40;;;;;;;4.38;2.35;;;;;;;;;;4956248;28;20474;-73
2023/07/23 10:50:10;;;;;;;3.45;2.22;;;;;;;;;;4954933;28;20038;-71
2023/07/23 10:52:37;;;;;;;3.42;2.50;;;;;;;;;;4955060;29;20077;-72
2023/07/23 10:55:05;;;;;;;2.38;2.17;;;;;;;;;;4956226;28;20030;-73
2023/07/23 10:57:31;;;;;;;3.60;2.30;;;;;;;;;;4955960;28;20020;-73
2023/07/23 10:59:58;;;;;;;2.38;2.17;;;;;;;;;;4955921;28;20035;-73
2023/07/23 11:02:25;;;;;;;2.97;2.42;;;;;;;;;;4956029;28;20106;-73
2023/07/23 11:04:52;;;;;;;2.97;2.72;;;;;;;;;;4956254;28;20027;-73
2023/07/23 11:07:30;;;;;;;3.92;2.40;;;;;;;;;;4956030;28;20031;-73
2023/07/23 11:09:56;;;;;;;2.65;2.28;;;;;;;;;;4956356;29;20038;-73
2023/07/23 11:12:24;;;;;;;2.40;2.20;;;;;;;;;;4956071;29;20569;-73
2023/07/23 11:14:52;;;;;;;2.85;2.40;;;;;;;;;;4955974;28;20055;-72
2023/07/23 11:17:18;;;;;;;2.72;2.45;;;;;;;;;;4954321;28;20033;-73
2023/07/23 11:19:44;;;;;;;4.00;2.42;;;;;;;;;;4954503;29;20508;-73
2023/07/23 11:22:10;;;;;;;7.90;3.22;;;;;;;;;;4955471;28;20126;-73
2023/07/23 11:24:36;;;;;;;5.72;2.90;;;;;;;;;;4984353;23;20424;-76
2023/07/23 11:27:03;;;;;;;3.08;2.42;;;;;;;;;;4974203;28;20031;-76
2023/07/23 11:29:29;;;;;;;6.07;2.50;;;;;;;;;;4975147;28;20027;-76
2023/07/23 11:31:56;;;;;;;4.38;2.65;;;;;;;;;;4974018;28;20042;-76
2023/07/23 11:34:23;;;;;;;4.15;2.92;;;;;;;;;;4973714;28;20073;-76
2023/07/23 11:36:52;;;;;;;3.72;2.60;;;;;;;;;;4974795;28;20034;-76
2023/07/23 11:39:19;;;;;;;2.95;2.65;;;;;;;;;;4974793;28;20375;-76
2023/07/23 11:41:45;;;;;;;2.97;2.60;;;;;;;;;;4974906;28;20031;-76
2023/07/23 11:44:11;;;;;;;3.25;2.38;;;;;;;;;;4973397;28;20023;-76
2023/07/23 11:46:38;;;;;;;3.97;2.83;;;;;;;;;;4974747;28;20069;-76
2023/07/23 11:49:08;;;;;;;4.78;2.58;;;;;;;;;;4973705;28;20069;-76
2023/07/23 11:51:35;;;;;;;3.55;2.85;;;;;;;;;;4975681;28;20143;-76
2023/07/23 11:54:08;;;;;;;3.80;2.75;;;;;;;;;;4974549;28;20034;-76
2023/07/23 11:56:35;;;;;;;5.22;2.80;;;;;;;;;;4974798;28;20065;-76
2023/07/23 11:59:05;;;;;;;3.30;2.60;;;;;;;;;;4974779;28;20030;-76
2023/07/23 12:01:31;;;;;;;5.38;2.40;;;;;;;;;;4974407;28;20118;-76
2023/07/23 12:03:59;;;;;;;3.35;2.97;;;;;;;;;;4974533;28;20437;-76
2023/07/23 12:06:28;;;;;;;5.68;3.10;;;;;;;;;;4974384;28;20051;-76
2023/07/23 12:08:54;;;;;;;7.05;3.33;;;;;;;;;;4975106;28;20039;-76
2023/07/23 12:11:22;;;;;;;4.03;2.67;;;;;;;;;;4974671;28;20130;-76
2023/07/23 12:13:53;;;;;;;4.93;2.90;;;;;;;;;;4974458;28;20035;-76
2023/07/23 12:16:38;;;;;;;4.13;2.38;;;;;;;;;;4974398;28;20022;-76
2023/07/23 12:19:08;;;;;;;3.25;2.83;;;;;;;;;;4974337;28;20030;-76
2023/07/23 12:21:35;;;;;;;6.27;3.07;;;;;;;;;;4974388;28;20027;-76
2023/07/23 12:24:21;;;;;;;3.78;2.60;;;;;;;;;;4971525;28;20031;-77
2023/07/23 12:26:57;;;;;;;6.50;3.63;;;;;;;;;;4974160;28;20066;-76
2023/07/23 12:29:25;;;;;;;4.82;3.10;;;;;;;;;;4974111;28;20023;-76
2023/07/23 12:32:09;;;;;;;3.33;2.90;;;;;;;;;;4974006;28;20490;-76
2023/07/23 12:34:35;;;;;;;4.53;3.00;;;;;;;;;;4974008;28;20394;-76
2023/07/23 12:37:04;;;;;;;3.45;3.00;;;;;;;;;;4972789;28;20118;-76
2023/07/23 12:39:30;;;;;;;4.25;3.30;;;;;;;;;;4972586;28;20502;-76
2023/07/23 12:41:56;;;;;;;3.38;2.70;;;;;;;;;;4972279;28;20121;-76
2023/07/23 12:44:22;;;;;;;3.40;3.10;;;;;;;;;;4973705;28;20502;-76
2023/07/23 12:46:48;;;;;;;5.50;2.90;;;;;;;;;;4973569;28;20063;-76
2023/07/23 12:49:14;;;;;;;7.90;3.28;;;;;;;;;;4973701;28;20483;-76
2023/07/23 12:51:41;;;;;;;4.10;2.92;;;;;;;;;;4972335;28;20027;-76
2023/07/23 12:54:07;;;;;;;3.33;3.03;;;;;;;;;;4973734;28;20034;-76
2023/07/23 12:56:34;;;;;;;5.05;3.40;;;;;;;;;;4973696;28;20052;-76
2023/07/23 12:59:02;;;;;;;3.55;3.10;;;;;;;;;;4973617;28;20019;-76
2023/07/23 13:01:28;;;;;;;4.43;3.55;;;;;;;;;;4972099;28;20034;-76
2023/07/23 13:03:54;;;;;;;5.22;3.60;;;;;;;;;;4973222;28;20489;-76
2023/07/23 13:06:20;;;;;;;3.83;3.40;;;;;;;;;;4973670;28;20451;-76
2023/07/23 13:08:46;;;;;;;4.55;3.65;;;;;;;;;;4972744;28;20030;-76
2023/07/23 13:11:13;;;;;;;6.53;3.42;;;;;;;;;;4975282;28;20027;-76
2023/07/23 13:13:39;;;;;;;4.90;3.90;;;;;;;;;;4977121;28;20038;-76
2023/07/23 13:16:05;;;;;;;5.18;3.85;;;;;;;;;;4974954;28;20438;-76
2023/07/23 13:18:31;;;;;;;6.78;3.90;;;;;;;;;;4975143;28;20019;-76
2023/07/23 13:21:01;;;;;;;6.15;4.30;;;;;;;;;;4975610;28;20026;-76
2023/07/23 13:23:27;;;;;;;5.13;4.25;;;;;;;;;;4978765;23;20035;-76
2023/07/23 13:25:53;;;;;;;5.68;4.93;;;;;;;;;;4949690;28;20047;-76
2023/07/23 13:28:19;;;;;;;4.90;4.38;;;;;;;;;;4939246;29;20051;-76
2023/07/23 13:30:45;;;;;;;3.58;3.28;;;;;;;;;;4939889;29;20087;-76
2023/07/23 13:33:11;;;;;;;3.38;3.00;;;;;;;;;;4939375;29;20035;-76
2023/07/23 13:35:38;;;;;;;4.80;3.45;;;;;;;;;;4939300;29;20111;-76
2023/07/23 13:38:04;;;;;;;6.47;2.97;;;;;;;;;;4939145;29;20067;-75
2023/07/23 13:40:30;;;;;;;5.88;3.60;;;;;;;;;;4937914;29;20027;-75
2023/07/23 13:42:57;;;;;;;8.82;4.07;;;;;;;;;;4935730;29;20031;-76
2023/07/23 13:45:23;;;;;;;5.32;4.55;;;;;;;;;;4933243;29;20070;-75
2023/07/23 13:47:49;;;;;;;6.03;4.30;;;;;;;;;;4934166;29;20035;-76
2023/07/23 13:50:15;;;;;;;9.75;4.28;;;;;;;;;;4934477;29;20066;-75
2023/07/23 13:52:41;;;;;;;7.25;3.92;;;;;;;;;;4934086;29;20035;-76
2023/07/23 13:55:10;;;;;;;4.95;4.10;;;;;;;;;;4933930;29;20020;-75
2023/07/23 13:57:39;;;;;;;8.43;3.83;;;;;;;;;;4934316;29;20024;-75
2023/07/23 14:00:06;;;;;;;4.20;3.67;;;;;;;;;;4934450;29;20098;-75
2023/07/23 14:02:32;;;;;;;4.50;3.25;;;;;;;;;;4934461;29;20031;-76
2023/07/23 14:04:58;;;;;;;4.93;4.00;;;;;;;;;;4934212;29;20023;-75
2023/07/23 14:07:24;;;;;;;4.80;3.97;;;;;;;;;;4934014;29;20024;-75
2023/07/23 14:09:50;;;;;;;3.25;2.88;;;;;;;;;;4934393;29;20047;-75
2023/07/23 14:12:16;;;;;;;6.35;3.60;;;;;;;;;;4933221;29;20027;-76
2023/07/23 14:14:42;;;;;;;5.63;3.35;;;;;;;;;;4934492;29;20023;-75
2023/07/23 14:17:10;;;;;;;4.88;3.10;;;;;;;;;;4934551;29;20039;-75
2023/07/23 14:19:39;;;;;;;3.10;2.80;;;;;;;;;;4936343;29;20079;-75
2023/07/23 14:22:05;;;;;;;3.97;2.83;;;;;;;;;;4939593;29;20399;-75
2023/07/23 14:24:31;;;;;;;3.30;2.92;;;;;;;;;;4934719;29;20039;-76
2023/07/23 14:26:59;;;;;;;3.00;2.80;;;;;;;;;;4934697;29;20028;-76
2023/07/23 14:29:25;;;;;;;3.75;2.72;;;;;;;;;;4934800;29;20032;-76
2023/07/23 14:31:54;;;;;;;3.05;2.60;;;;;;;;;;4934279;29;20023;-77
2023/07/23 14:34:20;;;;;;;4.22;3.30;;;;;;;;;;4934283;29;20047;-75
2023/07/23 14:36:46;;;;;;;5.28;3.05;;;;;;;;;;4933945;29;20059;-76
2023/07/23 14:39:12;;;;;;;3.33;2.72;;;;;;;;;;4934356;29;20031;-76
2023/07/23 14:41:38;;;;;;;4.72;2.50;;;;;;;;;;4933857;29;20119;-76